createdAt,value
2022-09-23T00:01:14.368Z,99270.00
2022-09-23T00:03:42.316Z,99267.19
2022-09-23T00:06:19.668Z,99262.75
2022-09-23T00:08:46.677Z,99254.03
2022-09-23T00:11:15.257Z,99256.84
2022-09-23T00:13:43.118Z,99254.88
2022-09-23T00:16:12.752Z,99259.75
2022-09-23T00:18:39.634Z,99257.94
2022-09-23T00:21:07.356Z,99254.34
2022-09-23T00:23:34.301Z,99253.50
2022-09-23T00:26:01.869Z,99249.16
2022-09-23T00:28:29.105Z,99250.25
2022-09-23T00:30:56.284Z,99249.50
2022-09-23T00:33:23.193Z,99242.38
2022-09-23T00:35:49.962Z,99247.78
2022-09-23T00:38:17.238Z,99239.03
2022-09-23T00:40:44.835Z,99240.75
2022-09-23T00:43:13.022Z,99247.56
2022-09-23T00:45:40.937Z,99241.31
2022-09-23T00:48:08.893Z,99243.16
2022-09-23T00:50:40.065Z,99233.22
2022-09-23T00:53:08.076Z,99235.81
2022-09-23T00:55:39.226Z,99237.00
2022-09-23T00:58:08.016Z,99232.59
2022-09-23T01:00:35.634Z,99222.75
2022-09-23T01:03:02.582Z,99228.38
2022-09-23T01:05:29.371Z,99227.63
2022-09-23T01:07:57.532Z,99229.59
2022-09-23T01:10:24.374Z,99229.59
2022-09-23T01:13:16.155Z,99228.59
2022-09-23T01:16:08.375Z,99228.84
2022-09-23T01:18:45.518Z,99226.25
2022-09-23T01:21:21.406Z,99229.16
2022-09-23T01:24:02.448Z,99223.66
2022-09-23T01:26:51.333Z,99224.72
2022-09-23T01:29:55.067Z,99214.16
2022-09-23T01:33:04.795Z,99216.97
2022-09-23T01:36:05.261Z,99219.81
2022-09-23T01:38:39.741Z,99212.56
2022-09-23T01:41:13.214Z,99218.91
2022-09-23T01:43:47.298Z,99210.19
2022-09-23T01:46:19.820Z,99210.28
2022-09-23T01:48:51.424Z,99212.03
2022-09-23T01:51:23.922Z,99212.25
2022-09-23T01:54:18.952Z,99212.25
2022-09-23T01:56:56.335Z,99210.28
2022-09-23T01:59:35.849Z,99204.38
2022-09-23T02:02:15.364Z,99200.94
2022-09-23T02:04:48.080Z,99201.88
2022-09-23T02:07:20.364Z,99204.59
2022-09-23T02:09:52.658Z,99206.44
2022-09-23T02:12:20.368Z,99205.59
2022-09-23T02:14:56.644Z,99208.59
2022-09-23T02:17:31.646Z,99206.66
2022-09-23T02:20:01.683Z,99199.66
2022-09-23T02:22:35.360Z,99197.72
2022-09-23T02:25:03.273Z,99203.41
2022-09-23T02:27:34.864Z,99200.72
2022-09-23T02:30:21.862Z,99202.56
2022-09-23T02:32:53.334Z,99194.69
2022-09-23T02:35:33.357Z,99192.09
2022-09-23T02:38:18.689Z,99194.06
2022-09-23T02:40:46.037Z,99200.41
2022-09-23T02:43:24.425Z,99204.09
2022-09-23T02:45:51.264Z,99195.22
2022-09-23T02:48:30.680Z,99207.00
2022-09-23T02:50:57.933Z,99200.97
2022-09-23T02:53:25.053Z,99198.28
2022-09-23T02:55:51.844Z,99201.94
2022-09-23T02:58:18.632Z,99200.19
2022-09-23T03:00:50.180Z,99201.41
2022-09-23T03:03:46.972Z,99204.09
2022-09-23T03:06:30.224Z,99208.50
2022-09-23T03:09:13.015Z,99202.47
2022-09-23T03:11:40.583Z,99201.72
2022-09-23T03:14:19.855Z,99202.56
2022-09-23T03:16:55.936Z,99196.53
2022-09-23T03:19:56.097Z,99197.41
2022-09-23T03:22:28.041Z,99198.38
2022-09-23T03:24:54.817Z,99196.63
2022-09-23T03:27:24.132Z,99196.88
2022-09-23T03:29:51.776Z,99205.06
2022-09-23T03:32:20.200Z,99199.78
2022-09-23T03:34:49.083Z,99197.84
2022-09-23T03:37:18.049Z,99206.03
2022-09-23T03:39:49.930Z,99200.75
2022-09-23T03:42:21.189Z,99197.28
2022-09-23T03:44:48.286Z,99192.97
2022-09-23T03:47:15.782Z,99196.56
2022-09-23T03:49:43.833Z,99200.22
2022-09-23T03:52:11.167Z,99206.44
2022-09-23T03:54:37.969Z,99197.72
2022-09-23T03:57:05.140Z,99200.41
2022-09-23T03:59:31.964Z,99198.72
2022-09-23T04:01:59.629Z,99199.66
2022-09-23T04:04:27.673Z,99196.13
2022-09-23T04:06:57.837Z,99202.56
2022-09-23T04:09:24.653Z,99205.47
2022-09-23T04:11:52.086Z,99196.31
2022-09-23T04:14:19.465Z,99191.78
2022-09-23T04:16:46.963Z,99198.28
2022-09-23T04:19:14.246Z,99196.44
2022-09-23T04:21:41.316Z,99200.19
2022-09-23T04:24:08.270Z,99204.63
2022-09-23T04:26:35.493Z,99195.69
2022-09-23T04:29:02.547Z,99197.59
2022-09-23T04:31:29.437Z,99198.47
2022-09-23T04:33:56.734Z,99199.44
2022-09-23T04:36:23.533Z,99202.13
2022-09-23T04:38:50.809Z,99200.28
2022-09-23T04:41:18.213Z,99192.44
2022-09-23T04:43:45.264Z,99195.13
2022-09-23T04:46:13.478Z,99189.84
2022-09-23T04:48:41.644Z,99191.56
2022-09-23T04:51:19.264Z,99192.66
2022-09-23T04:53:47.324Z,99195.25
2022-09-23T04:56:18.653Z,99193.41
2022-09-23T04:58:46.102Z,99196.19
2022-09-23T05:01:17.480Z,99189.06
2022-09-23T05:03:44.652Z,99193.59
2022-09-23T05:06:13.805Z,99197.38
2022-09-23T05:08:41.664Z,99196.41
2022-09-23T05:11:09.018Z,99199.97
2022-09-23T05:13:36.216Z,99201.69
2022-09-23T05:16:05.061Z,99206.31
2022-09-23T05:18:32.647Z,99210.75
2022-09-23T05:21:00.238Z,99212.66
2022-09-23T05:23:27.563Z,99211.72
2022-09-23T05:26:02.850Z,99211.59
2022-09-23T05:28:32.394Z,99209.97
2022-09-23T05:31:20.575Z,99210.97
2022-09-23T05:33:54.179Z,99210.84
2022-09-23T05:36:21.639Z,99216.25
2022-09-23T05:38:51.582Z,99217.09
2022-09-23T05:41:19.656Z,99219.78
2022-09-23T05:43:47.427Z,99226.25
2022-09-23T05:46:19.587Z,99226.25
2022-09-23T05:48:47.295Z,99218.94
2022-09-23T05:51:19.003Z,99226.03
2022-09-23T05:53:46.550Z,99226.91
2022-09-23T05:56:17.716Z,99225.09
2022-09-23T05:58:44.681Z,99226.34
2022-09-23T06:01:13.303Z,99227.22
2022-09-23T06:03:40.319Z,99227.13
2022-09-23T06:06:07.767Z,99223.53
2022-09-23T06:08:34.932Z,99229.72
2022-09-23T06:11:07.754Z,99233.16
2022-09-23T06:13:38.258Z,99232.97
2022-09-23T06:16:13.006Z,99237.16
2022-09-23T06:18:40.830Z,99235.22
2022-09-23T06:21:09.311Z,99243.84
2022-09-23T06:23:39.480Z,99237.41
2022-09-23T06:26:09.708Z,99239.00
2022-09-23T06:28:37.878Z,99239.56
2022-09-23T06:31:13.394Z,99244.97
2022-09-23T06:33:45.043Z,99241.06
2022-09-23T06:36:13.116Z,99245.41
2022-09-23T06:38:44.692Z,99236.22
2022-09-23T06:41:12.108Z,99238.50
2022-09-23T06:43:38.987Z,99243.78
2022-09-23T06:46:07.375Z,99238.38
2022-09-23T06:48:35.347Z,99241.53
2022-09-23T06:51:04.178Z,99236.66
2022-09-23T06:53:34.121Z,99240.97
2022-09-23T06:56:02.643Z,99245.19
2022-09-23T06:58:30.140Z,99233.19
2022-09-23T07:01:08.519Z,99236.31
2022-09-23T07:03:35.726Z,99231.56
2022-09-23T07:06:02.952Z,99239.13
2022-09-23T07:08:30.146Z,99241.38
2022-09-23T07:10:58.170Z,99240.94
2022-09-23T07:13:25.294Z,99240.50
2022-09-23T07:15:58.559Z,99249.22
2022-09-23T07:18:25.931Z,99254.19
2022-09-23T07:20:53.268Z,99250.91
2022-09-23T07:23:20.257Z,99249.63
2022-09-23T07:25:49.480Z,99251.84
2022-09-23T07:28:16.539Z,99241.50
2022-09-23T07:30:55.005Z,99237.59
2022-09-23T07:33:31.822Z,99244.03
2022-09-23T07:35:59.627Z,99238.31
2022-09-23T07:38:30.230Z,99242.16
2022-09-23T07:41:08.109Z,99239.97
2022-09-23T07:43:35.435Z,99243.06
2022-09-23T07:46:04.161Z,99242.38
2022-09-23T07:48:34.336Z,99241.88
2022-09-23T07:51:19.065Z,99244.66
2022-09-23T07:53:52.095Z,99246.63
2022-09-23T07:56:19.967Z,99248.63
2022-09-23T07:59:00.019Z,99246.31
2022-09-23T08:01:33.152Z,99251.13
2022-09-23T08:04:21.673Z,99244.16
2022-09-23T08:06:50.396Z,99247.13
2022-09-23T08:09:18.845Z,99252.94
2022-09-23T08:11:45.780Z,99244.94
2022-09-23T08:14:13.653Z,99247.75
2022-09-23T08:16:41.268Z,99251.44
2022-09-23T08:19:08.343Z,99243.59
2022-09-23T08:21:35.492Z,99241.00
2022-09-23T08:24:02.599Z,99241.38
2022-09-23T08:26:29.398Z,99240.75
2022-09-23T08:28:56.574Z,99243.44
2022-09-23T08:31:23.578Z,99231.84
2022-09-23T08:33:57.091Z,99231.22
2022-09-23T08:36:24.747Z,99232.28
2022-09-23T08:38:51.637Z,99233.38
2022-09-23T08:41:40.210Z,99238.06
2022-09-23T08:44:13.798Z,99229.00
2022-09-23T08:46:44.906Z,99228.25
2022-09-23T08:49:12.398Z,99222.88
2022-09-23T08:51:46.256Z,99221.38
2022-09-23T08:54:13.531Z,99221.59
2022-09-23T08:56:40.349Z,99223.34
2022-09-23T08:59:38.354Z,99221.69
2022-09-23T09:02:20.232Z,99222.59
2022-09-23T09:04:54.577Z,99223.69
2022-09-23T09:07:36.523Z,99219.16
2022-09-23T09:10:03.855Z,99223.50
2022-09-23T09:12:45.297Z,99218.53
2022-09-23T09:15:27.380Z,99220.47
2022-09-23T09:18:14.051Z,99211.47
2022-09-23T09:20:57.173Z,99209.38
2022-09-23T09:23:30.113Z,99208.53
2022-09-23T09:26:01.648Z,99205.81
2022-09-23T09:28:36.368Z,99203.13
2022-09-23T09:31:14.972Z,99204.16
2022-09-23T09:33:47.827Z,99202.59
2022-09-23T09:36:36.127Z,99198.00
2022-09-23T09:39:03.695Z,99192.88
2022-09-23T09:41:31.609Z,99196.03
2022-09-23T09:44:00.700Z,99186.16
2022-09-23T09:46:51.334Z,99178.00
2022-09-23T09:49:40.889Z,99179.41
2022-09-23T09:52:12.209Z,99168.94
2022-09-23T09:54:39.637Z,99159.91
2022-09-23T09:57:12.412Z,99162.88
2022-09-23T09:59:44.126Z,99154.69
2022-09-23T10:02:25.581Z,99159.69
2022-09-23T10:04:58.094Z,99160.97
2022-09-23T10:07:27.195Z,99151.63
2022-09-23T10:09:58.345Z,99158.22
2022-09-23T10:12:28.688Z,99156.88
2022-09-23T10:14:56.684Z,99145.84
2022-09-23T10:17:26.460Z,99144.50
2022-09-23T10:20:06.918Z,99149.22
2022-09-23T10:22:39.787Z,99147.59
2022-09-23T10:25:16.425Z,99149.00
2022-09-23T10:27:45.769Z,99151.09
2022-09-23T10:30:22.620Z,99145.81
2022-09-23T10:32:50.847Z,99141.63
2022-09-23T10:35:21.037Z,99143.03
2022-09-23T10:37:52.648Z,99138.69
2022-09-23T10:40:51.076Z,99145.53
2022-09-23T10:43:39.574Z,99143.22
2022-09-23T10:46:27.523Z,99148.34
2022-09-23T10:49:09.163Z,99144.78
2022-09-23T10:51:57.941Z,99145.72
2022-09-23T10:54:52.183Z,99144.38
2022-09-23T10:57:42.480Z,99135.59
2022-09-23T11:00:23.569Z,99136.97
2022-09-23T11:03:02.866Z,99129.91
2022-09-23T11:05:55.463Z,99124.44
2022-09-23T11:09:00.073Z,99128.13
2022-09-23T11:11:52.460Z,99128.88
2022-09-23T11:14:40.772Z,99125.84
2022-09-23T11:17:45.279Z,99118.56
2022-09-23T11:20:46.616Z,99122.59
2022-09-23T11:23:13.451Z,99119.38
2022-09-23T11:25:50.574Z,99120.63
2022-09-23T11:28:39.948Z,99116.72
2022-09-23T11:31:40.545Z,99111.16
2022-09-23T11:34:43.702Z,99109.31
2022-09-23T11:37:15.469Z,99107.97
2022-09-23T11:39:59.871Z,99103.03
2022-09-23T11:42:32.901Z,99101.53
2022-09-23T11:45:02.324Z,99110.78
2022-09-23T11:47:55.016Z,99098.88
2022-09-23T11:50:44.743Z,99090.19
2022-09-23T11:53:36.380Z,99096.84
2022-09-23T11:56:30.092Z,99090.22
2022-09-23T11:59:06.662Z,99088.84
2022-09-23T12:01:38.535Z,99090.56
2022-09-23T12:04:29.187Z,99087.84
2022-09-23T12:07:08.673Z,99084.94
2022-09-23T12:09:58.556Z,99083.75
2022-09-23T12:12:39.292Z,99075.56
2022-09-23T12:15:17.663Z,99075.41
2022-09-23T12:17:59.773Z,99070.63
2022-09-23T12:20:42.275Z,99076.44
2022-09-23T12:23:13.317Z,99070.66
2022-09-23T12:25:57.847Z,99064.34
2022-09-23T12:28:27.473Z,99061.78
2022-09-23T12:30:55.409Z,99065.19
2022-09-23T12:33:24.668Z,99059.38
2022-09-23T12:35:53.543Z,99064.53
2022-09-23T12:38:36.794Z,99057.84
2022-09-23T12:41:19.634Z,99059.91
2022-09-23T12:43:58.948Z,99051.69
2022-09-23T12:46:27.621Z,99049.81
2022-09-23T12:48:57.974Z,99047.25
2022-09-23T12:51:29.175Z,99046.06
2022-09-23T12:53:57.318Z,99044.16
2022-09-23T12:56:36.280Z,99044.16
2022-09-23T12:59:21.954Z,99029.81
2022-09-23T13:01:48.876Z,99033.59
2022-09-23T13:04:47.851Z,99037.16
2022-09-23T13:07:16.760Z,99028.47
2022-09-23T13:09:48.037Z,99020.94
2022-09-23T13:12:25.280Z,99016.50
2022-09-23T13:14:53.485Z,99014.81
2022-09-23T13:17:33.353Z,99012.41
2022-09-23T13:20:25.830Z,99014.63
2022-09-23T13:22:52.583Z,99003.50
2022-09-23T13:25:24.537Z,98997.03
2022-09-23T13:27:55.888Z,98994.28
2022-09-23T13:30:26.410Z,98993.28
2022-09-23T13:33:05.224Z,98988.66
2022-09-23T13:35:36.280Z,98991.06
2022-09-23T13:38:20.215Z,98984.75
2022-09-23T13:40:47.495Z,98980.13
2022-09-23T13:43:40.264Z,98983.53
2022-09-23T13:46:19.567Z,98975.34
2022-09-23T13:48:47.938Z,98978.06
2022-09-23T13:51:24.642Z,98978.75
2022-09-23T13:53:55.355Z,98972.09
2022-09-23T13:56:22.603Z,98972.94
2022-09-23T13:58:49.384Z,98966.28
2022-09-23T14:01:36.907Z,98965.25
2022-09-23T14:04:04.120Z,98961.66
2022-09-23T14:06:31.125Z,98966.97
2022-09-23T14:08:58.241Z,98966.13
2022-09-23T14:11:33.208Z,98958.59
2022-09-23T14:14:00.872Z,98958.59
2022-09-23T14:16:28.276Z,98958.59
2022-09-23T14:18:59.525Z,98957.53
2022-09-23T14:21:35.017Z,98964.06
2022-09-23T14:24:14.927Z,98962.50
2022-09-23T14:26:43.013Z,98957.53
2022-09-23T14:29:23.949Z,98953.81
2022-09-23T14:31:59.911Z,98951.25
2022-09-23T14:34:46.677Z,98948.34
2022-09-23T14:37:42.689Z,98945.78
2022-09-23T14:40:13.170Z,98951.25
2022-09-23T14:43:01.799Z,98942.19
2022-09-23T14:45:31.765Z,98941.16
2022-09-23T14:48:14.696Z,98936.72
2022-09-23T14:50:47.567Z,98940.31
2022-09-23T14:53:19.029Z,98937.56
2022-09-23T14:55:52.760Z,98935.88
2022-09-23T14:58:22.673Z,98935.16
2022-09-23T15:00:54.303Z,98936.22
2022-09-23T15:03:21.274Z,98921.66
2022-09-23T15:05:49.049Z,98928.84
2022-09-23T15:08:21.328Z,98928.19
2022-09-23T15:10:48.085Z,98923.72
2022-09-23T15:13:20.694Z,98925.63
2022-09-23T15:15:47.793Z,98921.16
2022-09-23T15:18:18.821Z,98925.13
2022-09-23T15:20:52.251Z,98920.00
2022-09-23T15:23:35.775Z,98923.06
2022-09-23T15:26:24.346Z,98924.25
2022-09-23T15:28:53.685Z,98916.25
2022-09-23T15:31:21.323Z,98912.81
2022-09-23T15:33:48.246Z,98914.88
2022-09-23T15:36:19.218Z,98907.00
2022-09-23T15:38:46.234Z,98910.94
2022-09-23T15:41:14.348Z,98906.50
2022-09-23T15:43:44.592Z,98905.66
2022-09-23T15:46:20.747Z,98905.66
2022-09-23T15:49:00.185Z,98908.72
2022-09-23T15:51:27.638Z,98911.63
2022-09-23T15:53:56.412Z,98903.94
2022-09-23T15:56:23.765Z,98907.00
2022-09-23T15:58:50.622Z,98896.25
2022-09-23T16:01:21.131Z,98908.53
2022-09-23T16:03:48.019Z,98901.56
2022-09-23T16:06:15.495Z,98901.88
2022-09-23T16:08:42.588Z,98902.38
2022-09-23T16:11:19.617Z,98902.72
2022-09-23T16:13:46.751Z,98903.06
2022-09-23T16:16:13.677Z,98896.41
2022-09-23T16:18:42.423Z,98892.25
2022-09-23T16:21:17.660Z,98889.88
2022-09-23T16:23:47.468Z,98893.13
2022-09-23T16:26:24.372Z,98895.16
2022-09-23T16:28:53.076Z,98900.06
2022-09-23T16:33:48.298Z,98900.25
2022-09-23T16:36:28.984Z,98901.59
2022-09-23T16:38:56.087Z,98895.63
2022-09-23T16:41:23.836Z,98892.53
2022-09-23T16:43:51.373Z,98893.91
2022-09-23T16:46:18.566Z,98891.81
2022-09-23T16:48:51.422Z,98893.16
2022-09-23T16:51:23.952Z,98890.41
2022-09-23T16:53:51.523Z,98892.09
2022-09-23T16:56:23.035Z,98885.25
2022-09-23T16:58:53.036Z,98888.31
2022-09-23T17:01:59.674Z,98886.06
2022-09-23T17:04:27.755Z,98882.97
2022-09-23T17:06:54.964Z,98880.84
2022-09-23T17:09:24.658Z,98885.78
2022-09-23T17:11:56.377Z,98885.44
2022-09-23T17:14:23.177Z,98887.78
2022-09-23T17:16:50.094Z,98891.00
2022-09-23T17:19:17.195Z,98894.22
2022-09-23T17:21:44.069Z,98906.44
2022-09-23T17:24:10.935Z,98902.66
2022-09-23T17:26:38.247Z,98899.56
2022-09-23T17:29:05.609Z,98901.03
2022-09-23T17:31:32.502Z,98897.09
2022-09-23T17:33:59.667Z,98901.31
2022-09-23T17:36:28.251Z,98902.78
2022-09-23T17:38:55.024Z,98902.56
2022-09-23T17:41:22.125Z,98906.78
2022-09-23T17:43:54.455Z,98901.81
2022-09-23T17:46:21.229Z,98910.44
2022-09-23T17:48:48.685Z,98909.34
2022-09-23T17:51:17.623Z,98908.78
2022-09-23T17:53:45.379Z,98913.00
2022-09-23T17:56:25.872Z,98920.78
2022-09-23T17:58:53.541Z,98916.97
2022-09-23T18:01:22.426Z,98917.41
2022-09-23T18:04:02.300Z,98917.91
2022-09-23T18:06:33.496Z,98915.78
2022-09-23T18:09:06.730Z,98917.41
2022-09-23T18:11:44.343Z,98912.59
2022-09-23T18:14:19.149Z,98913.91
2022-09-23T18:16:47.170Z,98918.78
2022-09-23T18:19:18.673Z,98912.09
2022-09-23T18:21:50.533Z,98913.00
2022-09-23T18:24:34.004Z,98912.63
2022-09-23T18:27:01.525Z,98917.63
2022-09-23T18:29:28.786Z,98915.94
2022-09-23T18:31:55.783Z,98914.97
2022-09-23T18:34:23.590Z,98914.22
2022-09-23T18:36:50.865Z,98912.81
2022-09-23T18:39:17.852Z,98911.56
2022-09-23T18:41:44.617Z,98913.16
2022-09-23T18:44:11.763Z,98900.47
2022-09-23T18:46:38.615Z,98904.47
2022-09-23T18:49:24.020Z,98911.06
2022-09-23T18:51:53.680Z,98906.63
2022-09-23T18:54:20.610Z,98906.50
2022-09-23T18:56:47.468Z,98912.69
2022-09-23T18:59:17.588Z,98910.69
2022-09-23T19:01:45.966Z,98903.81
2022-09-23T19:04:14.036Z,98910.69
2022-09-23T19:06:41.171Z,98903.72
2022-09-23T19:09:08.262Z,98907.16
2022-09-23T19:11:36.327Z,98904.88
2022-09-23T19:14:04.953Z,98898.03
2022-09-23T19:16:31.950Z,98903.03
2022-09-23T19:19:02.157Z,98905.34
2022-09-23T19:21:29.403Z,98905.63
2022-09-23T19:23:57.904Z,98896.50
2022-09-23T19:26:26.818Z,98897.47
2022-09-23T19:28:55.279Z,98907.34
2022-09-23T19:31:24.222Z,98899.59
2022-09-23T19:33:58.881Z,98898.59
2022-09-23T19:36:30.870Z,98896.19
2022-09-23T19:38:59.104Z,98899.16
2022-09-23T19:41:28.117Z,98907.16
2022-09-23T19:43:55.217Z,98889.59
2022-09-23T19:46:22.398Z,98882.16
2022-09-23T19:48:49.620Z,98880.88
2022-09-23T19:51:22.593Z,98886.47
2022-09-23T19:53:49.356Z,98892.59
2022-09-23T19:56:17.928Z,98897.44
2022-09-23T19:58:47.313Z,98888.13
2022-09-23T20:01:17.649Z,98889.16
2022-09-23T20:03:45.254Z,98883.28
2022-09-23T20:06:12.049Z,98883.56
2022-09-23T20:08:39.291Z,98883.13
2022-09-23T20:11:22.639Z,98880.00
2022-09-23T20:13:58.420Z,98874.84
2022-09-23T20:16:25.710Z,98882.41
2022-09-23T20:18:52.640Z,98881.09
2022-09-23T20:21:19.483Z,98880.38
2022-09-23T20:23:46.688Z,98878.06
2022-09-23T20:26:32.088Z,98881.50
2022-09-23T20:29:02.359Z,98872.66
2022-09-23T20:31:29.353Z,98869.19
2022-09-23T20:33:58.529Z,98871.44
2022-09-23T20:36:26.339Z,98875.28
2022-09-23T20:38:57.147Z,98877.69
2022-09-23T20:41:24.019Z,98872.53
2022-09-23T20:43:54.767Z,98870.09
2022-09-23T20:46:24.421Z,98865.06
2022-09-23T20:48:51.415Z,98858.94
2022-09-23T20:51:18.945Z,98868.50
2022-09-23T20:53:49.168Z,98857.66
2022-09-23T20:56:16.544Z,98863.59
2022-09-23T20:58:44.570Z,98859.47
2022-09-23T21:01:11.605Z,98856.31
2022-09-23T21:03:39.906Z,98855.44
2022-09-23T21:06:08.005Z,98858.69
2022-09-23T21:08:35.463Z,98858.25
2022-09-23T21:11:06.132Z,98858.06
2022-09-23T21:13:33.620Z,98856.19
2022-09-23T21:16:08.983Z,98863.47
2022-09-23T21:18:37.530Z,98867.69
2022-09-23T21:21:05.443Z,98872.97
2022-09-23T21:23:34.166Z,98868.09
2022-09-23T21:26:06.622Z,98870.81
2022-09-23T21:28:38.236Z,98864.06
2022-09-23T21:31:10.145Z,98867.31
2022-09-23T21:33:37.531Z,98863.59
2022-09-23T21:36:05.779Z,98866.97
2022-09-23T21:38:36.632Z,98865.38
2022-09-23T21:41:05.780Z,98875.63
2022-09-23T21:43:33.981Z,98875.75
2022-09-23T21:46:03.360Z,98879.56
2022-09-23T21:48:31.003Z,98884.63
2022-09-23T21:50:59.120Z,98882.69
2022-09-23T21:53:26.765Z,98879.50
2022-09-23T21:55:54.132Z,98869.88
2022-09-23T21:58:22.587Z,98880.59
2022-09-23T22:00:49.657Z,98869.53
2022-09-23T22:03:16.587Z,98868.47
2022-09-23T22:05:44.067Z,98869.31
2022-09-23T22:08:11.195Z,98875.13
2022-09-23T22:10:38.004Z,98875.00
2022-09-23T22:13:10.454Z,98873.41
2022-09-23T22:15:39.728Z,98874.66
2022-09-23T22:18:06.593Z,98867.66
2022-09-23T22:20:33.927Z,98873.19
2022-09-23T22:23:00.976Z,98870.88
2022-09-23T22:25:28.706Z,98875.56
2022-09-23T22:28:13.719Z,98870.41
2022-09-23T22:30:59.429Z,98870.78
2022-09-23T22:33:26.270Z,98860.84
2022-09-23T22:36:01.517Z,98868.47
2022-09-23T22:38:28.328Z,98864.41
2022-09-23T22:40:55.564Z,98875.09
2022-09-23T22:43:22.462Z,98871.56
2022-09-23T22:45:50.850Z,98864.53
2022-09-23T22:48:19.235Z,98865.66
2022-09-23T22:50:46.209Z,98861.50
2022-09-23T22:53:13.973Z,98863.22
2022-09-23T22:55:42.126Z,98858.19
2022-09-23T22:58:30.702Z,98856.50
2022-09-23T23:00:57.228Z,98858.31
2022-09-23T23:03:26.646Z,98857.72
2022-09-23T23:05:57.547Z,98849.84
2022-09-23T23:08:24.621Z,98853.81
2022-09-23T23:10:51.425Z,98852.31
2022-09-23T23:13:18.193Z,98856.16
2022-09-23T23:15:45.282Z,98849.75
2022-09-23T23:18:12.889Z,98848.88
2022-09-23T23:20:39.714Z,98853.81
2022-09-23T23:23:07.125Z,98855.06
2022-09-23T23:25:34.141Z,98849.91
2022-09-23T23:28:01.074Z,98852.47
2022-09-23T23:30:28.107Z,98851.59
2022-09-23T23:32:54.951Z,98848.28
2022-09-23T23:35:21.710Z,98845.72
2022-09-23T23:37:48.795Z,98841.44
2022-09-23T23:40:15.797Z,98835.16
2022-09-23T23:42:42.752Z,98846.34
2022-09-23T23:45:09.894Z,98847.31
2022-09-23T23:47:36.653Z,98838.75
2022-09-23T23:50:04.488Z,98841.69
2022-09-23T23:52:31.585Z,98846.97
2022-09-23T23:54:58.357Z,98845.75
2022-09-23T23:57:25.228Z,98837.63
2022-09-23T23:59:52.289Z,98843.25
